Time;durP1;ratioP1;P1;durP2;ratioP2;P2;SDS_P1;SDS_P2;PMS_P1;PMS_P2;Temp;Humidity;BMP_temperature;BMP_pressure;BME280_temperature;BME280_humidity;BME280_pressure;Samples;Min_cycle;Max_cycle;Signal;HPM_P1;HPM_P2
2022/11/21 00:02:20;;;;;;;115.10;44.70;;;;;;;-4.15;82.17;99502.73;103108;1278;25428;-56
2022/11/21 00:04:52;;;;;;;106.30;45.20;;;;;;;-4.15;82.39;99502.42;103169;1279;22528;-57
2022/11/21 00:07:23;;;;;;;105.60;43.40;;;;;;;-4.15;82.48;99507.73;103102;1274;22847;-54
2022/11/21 00:09:54;;;;;;;102.20;41.30;;;;;;;-4.15;82.41;99506.79;103159;1306;22652;-57
2022/11/21 00:12:27;;;;;;;106.70;41.40;;;;;;;-4.16;82.56;99506.09;103175;1292;24314;-57
2022/11/21 00:14:58;;;;;;;99.90;39.00;;;;;;;-4.16;82.62;99499.09;103159;1282;22575;-56
2022/11/21 00:17:30;;;;;;;101.30;40.40;;;;;;;-4.16;82.85;99500.55;103106;1275;22644;-56
2022/11/21 00:20:01;;;;;;;95.80;40.00;;;;;;;-4.16;82.89;99500.17;103166;1274;25694;-58
2022/11/21 00:22:34;;;;;;;107.00;40.20;;;;;;;-4.17;83.18;99494.65;103209;1306;25608;-57
2022/11/21 00:25:07;;;;;;;97.20;37.30;;;;;;;-4.16;83.25;99490.98;103233;1294;22531;-57
2022/11/21 00:27:39;;;;;;;102.00;40.60;;;;;;;-4.15;83.40;99487.48;103294;1274;25580;-57
2022/11/21 00:30:12;;;;;;;94.10;37.40;;;;;;;-4.14;83.54;99487.79;103225;1282;22597;-57
2022/11/21 00:32:45;;;;;;;97.80;38.30;;;;;;;-4.14;83.57;99483.10;103205;1282;23919;-56
2022/11/21 00:35:18;;;;;;;98.20;41.40;;;;;;;-4.11;83.61;99485.27;103209;1306;22568;-57
2022/11/21 00:37:49;;;;;;;98.80;40.90;;;;;;;-4.10;83.62;99480.75;103171;1306;22518;-57
2022/11/21 00:40:21;;;;;;;101.30;39.60;;;;;;;-4.09;83.62;99479.11;103217;1306;22683;-56
2022/11/21 00:42:53;;;;;;;103.80;39.40;;;;;;;-4.09;83.67;99471.31;103324;1303;24435;-56
2022/11/21 00:45:25;;;;;;;94.60;37.60;;;;;;;-4.09;83.67;99476.84;103561;1276;25426;-57
2022/11/21 00:47:57;;;;;;;100.90;41.40;;;;;;;-4.08;83.68;99475.59;103200;1300;23526;-55
2022/11/21 00:50:29;;;;;;;98.60;37.50;;;;;;;-4.08;83.71;99474.88;103486;1306;26858;-55
2022/11/21 00:53:01;;;;;;;100.80;38.40;;;;;;;-4.07;83.67;99473.78;103241;1282;22505;-57
2022/11/21 00:55:36;;;;;;;93.00;38.40;;;;;;;-4.06;83.69;99470.91;103384;1282;22494;-58
2022/11/21 00:58:07;;;;;;;92.80;36.40;;;;;;;-4.07;83.62;99467.10;103288;1282;22511;-58
2022/11/21 01:00:38;;;;;;;94.60;37.10;;;;;;;-4.10;83.73;99466.65;103414;1275;25558;-56
2022/11/21 01:03:10;;;;;;;98.20;36.90;;;;;;;-4.11;83.76;99462.06;103200;1282;22533;-57
2022/11/21 01:05:41;;;;;;;101.80;40.00;;;;;;;-4.12;83.89;99460.12;103288;1306;22547;-57
2022/11/21 01:08:13;;;;;;;92.20;33.50;;;;;;;-4.13;83.97;99458.72;103237;1275;22510;-57
2022/11/21 01:10:45;;;;;;;99.60;37.70;;;;;;;-4.14;84.10;99459.42;103145;1275;22495;-56
2022/11/21 01:13:17;;;;;;;93.60;36.50;;;;;;;-4.12;84.18;99453.82;103168;1284;24219;-57
2022/11/21 01:15:48;;;;;;;97.20;37.70;;;;;;;-4.12;84.33;99444.77;103237;1306;22564;-57
2022/11/21 01:18:20;;;;;;;102.40;38.80;;;;;;;-4.10;84.57;99434.79;103207;1306;24338;-57
2022/11/21 01:20:51;;;;;;;92.70;35.80;;;;;;;-4.07;84.60;99418.73;103216;1282;24391;-58
2022/11/21 01:23:23;;;;;;;108.40;38.10;;;;;;;-4.05;84.91;99413.34;103192;1282;22506;-56
2022/11/21 01:25:54;;;;;;;109.40;41.80;;;;;;;-4.03;85.01;99408.20;103245;1281;24397;-55
2022/11/21 01:28:26;;;;;;;110.00;38.80;;;;;;;-3.98;85.22;99412.67;103341;1275;22518;-55
2022/11/21 01:31:02;;;;;;;114.40;42.30;;;;;;;-3.94;85.46;99418.40;103219;1305;22909;-56
2022/11/21 01:33:34;;;;;;;113.00;41.50;;;;;;;-3.91;85.57;99413.94;103296;1306;22492;-55
2022/11/21 01:36:14;;;;;;;100.10;39.20;;;;;;;-3.87;85.73;99414.45;103215;1289;24248;-55
2022/11/21 01:38:47;;;;;;;99.30;37.80;;;;;;;-3.82;85.75;99413.86;103310;1282;22515;-55
2022/11/21 01:41:21;;;;;;;101.80;40.20;;;;;;;-3.76;85.97;99412.41;103229;1282;23205;-57
2022/11/21 01:43:53;;;;;;;101.40;39.10;;;;;;;-3.72;86.16;99410.96;103343;1282;22549;-56
2022/11/21 01:46:26;;;;;;;102.50;36.90;;;;;;;-3.67;86.29;99407.65;103230;1282;23192;-57
2022/11/21 01:49:02;;;;;;;89.00;34.30;;;;;;;-3.62;86.30;99403.31;103373;1282;22513;-57
2022/11/21 01:51:38;;;;;;;87.80;36.90;;;;;;;-3.58;86.59;99399.38;103209;1291;25623;-56
2022/11/21 01:54:14;;;;;;;98.70;37.20;;;;;;;-3.52;86.64;99395.74;103252;1275;25414;-57
2022/11/21 01:56:50;;;;;;;99.50;37.90;;;;;;;-3.47;86.78;99395.85;103193;1280;22563;-57
2022/11/21 01:59:28;;;;;;;80.10;33.10;;;;;;;-3.42;86.83;99393.60;103175;1306;24396;-58
2022/11/21 02:02:02;;;;;;;84.00;33.40;;;;;;;-3.37;86.83;99392.08;103166;1306;22626;-58
2022/11/21 02:04:35;;;;;;;91.50;35.00;;;;;;;-3.31;87.03;99389.20;103138;1282;22551;-58
2022/11/21 02:07:11;;;;;;;78.70;32.00;;;;;;;-3.26;87.20;99383.06;103181;1281;22536;-58
2022/11/21 02:09:46;;;;;;;87.10;31.90;;;;;;;-3.21;87.27;99384.40;103284;1287;22941;-57
2022/11/21 02:12:23;;;;;;;90.90;34.90;;;;;;;-3.16;87.41;99377.10;103316;1275;24805;-58
2022/11/21 02:14:55;;;;;;;95.50;36.90;;;;;;;-3.10;87.48;99372.66;103173;1299;24381;-58
2022/11/21 02:17:29;;;;;;;96.70;37.00;;;;;;;-3.04;87.58;99373.53;103083;1282;22535;-60
2022/11/21 02:20:02;;;;;;;86.30;35.60;;;;;;;-3.00;87.46;99369.81;103138;1306;22522;-54
2022/11/21 02:22:41;;;;;;;79.40;30.30;;;;;;;-2.96;87.56;99366.48;103158;1281;24276;-57
2022/11/21 02:25:18;;;;;;;81.20;30.90;;;;;;;-2.90;87.62;99362.36;103148;1282;22563;-57
2022/11/21 02:27:53;;;;;;;82.70;30.30;;;;;;;-2.85;87.71;99363.61;103480;1298;24298;-57
2022/11/21 02:30:26;;;;;;;80.80;33.00;;;;;;;-2.80;88.01;99360.05;103235;1282;22493;-58
2022/11/21 02:32:59;;;;;;;76.10;30.50;;;;;;;-2.75;88.00;99355.91;103274;1275;24296;-58
2022/11/21 02:35:30;;;;;;;79.30;33.80;;;;;;;-2.72;87.98;99351.58;103120;1282;22932;-57
2022/11/21 02:38:05;;;;;;;80.60;31.70;;;;;;;-2.68;88.11;99347.07;103207;1306;24256;-54
2022/11/21 02:40:41;;;;;;;87.40;34.60;;;;;;;-2.64;88.03;99344.51;103226;1282;24311;-56
2022/11/21 02:43:17;;;;;;;82.40;33.70;;;;;;;-2.61;88.13;99333.05;103118;1275;23932;-57
2022/11/21 02:45:49;;;;;;;78.00;30.90;;;;;;;-2.57;88.09;99326.54;103143;1285;22865;-57
2022/11/21 02:48:20;;;;;;;92.80;32.40;;;;;;;-2.54;87.97;99326.48;103104;1278;23059;-57
2022/11/21 02:50:52;;;;;;;81.50;35.70;;;;;;;-2.51;88.03;99322.83;103195;1281;23149;-58
2022/11/21 02:53:23;;;;;;;81.90;31.80;;;;;;;-2.48;88.21;99317.34;103203;1278;25453;-58
2022/11/21 02:55:54;;;;;;;79.20;32.30;;;;;;;-2.43;88.04;99310.55;103174;1282;24382;-57
2022/11/21 02:58:26;;;;;;;85.50;33.20;;;;;;;-2.40;88.12;99307.08;103171;1300;22542;-57
2022/11/21 03:00:57;;;;;;;75.50;31.00;;;;;;;-2.36;88.22;99310.68;103203;1299;22526;-56
2022/11/21 03:03:29;;;;;;;84.40;32.50;;;;;;;-2.34;88.18;99309.71;103163;1306;23050;-56
2022/11/21 03:06:00;;;;;;;80.90;33.10;;;;;;;-2.29;88.31;99307.68;103096;1282;23097;-57
2022/11/21 03:08:32;;;;;;;80.70;30.90;;;;;;;-2.27;88.29;99303.26;103167;1282;22741;-56
2022/11/21 03:11:04;;;;;;;77.40;31.20;;;;;;;-2.23;88.38;99304.14;103090;1282;22842;-58
2022/11/21 03:13:36;;;;;;;86.40;32.00;;;;;;;-2.20;88.47;99301.05;103158;1282;26681;-56
2022/11/21 03:16:08;;;;;;;82.50;32.70;;;;;;;-2.16;88.50;99299.80;103081;1280;22675;-56
2022/11/21 03:18:39;;;;;;;82.90;29.30;;;;;;;-2.12;88.40;99289.41;103153;1306;26288;-57
2022/11/21 03:21:10;;;;;;;78.10;30.80;;;;;;;-2.09;88.48;99278.59;103104;1282;24425;-54
2022/11/21 03:23:43;;;;;;;80.10;32.40;;;;;;;-2.06;88.43;99270.80;103079;1282;25583;-57
2022/11/21 03:26:14;;;;;;;74.60;30.30;;;;;;;-2.03;88.43;99271.36;103210;1298;22607;-57
2022/11/21 03:28:45;;;;;;;84.80;33.30;;;;;;;-2.01;88.49;99270.17;103255;1284;22505;-56
2022/11/21 03:31:17;;;;;;;87.70;33.40;;;;;;;-1.99;88.53;99264.65;103210;1292;25423;-56
2022/11/21 03:33:49;;;;;;;85.40;35.00;;;;;;;-1.96;88.54;99265.30;103186;1305;25713;-55
2022/11/21 03:36:21;;;;;;;79.80;33.40;;;;;;;-1.94;88.52;99258.38;103204;1295;22864;-56
2022/11/21 03:38:54;;;;;;;76.30;30.70;;;;;;;-1.92;88.66;99253.35;103249;1275;22528;-57
2022/11/21 03:41:29;;;;;;;85.40;34.60;;;;;;;-1.90;88.68;99252.44;103247;1282;24252;-58
2022/11/21 03:44:02;;;;;;;80.80;33.50;;;;;;;-1.86;88.76;99245.73;103199;1282;24303;-56
2022/11/21 03:46:35;;;;;;;69.40;29.00;;;;;;;-1.84;88.75;99238.19;103265;1306;26731;-57
2022/11/21 03:49:08;;;;;;;79.80;31.30;;;;;;;-1.81;88.80;99234.45;103219;1299;24433;-58
2022/11/21 03:51:40;;;;;;;75.60;28.10;;;;;;;-1.77;88.86;99230.09;103376;1306;25471;-58
2022/11/21 03:54:13;;;;;;;70.80;28.80;;;;;;;-1.75;88.83;99222.39;103128;1282;22499;-56
2022/11/21 03:56:44;;;;;;;67.80;28.70;;;;;;;-1.74;88.88;99216.27;103309;1278;24673;-57
2022/11/21 03:59:16;;;;;;;73.90;30.50;;;;;;;-1.71;88.83;99215.66;103144;1306;22441;-57
2022/11/21 04:01:48;;;;;;;73.80;29.00;;;;;;;-1.69;88.79;99208.66;103323;1275;25523;-58
2022/11/21 04:04:19;;;;;;;78.40;30.30;;;;;;;-1.66;88.87;99207.74;103253;1282;22764;-57
2022/11/21 04:06:51;;;;;;;76.00;29.20;;;;;;;-1.65;88.75;99201.23;103126;1294;22599;-57
2022/11/21 04:09:22;;;;;;;73.10;28.10;;;;;;;-1.64;88.72;99195.20;103208;1306;22983;-55
2022/11/21 04:11:54;;;;;;;78.60;29.20;;;;;;;-1.63;88.59;99190.64;103302;1274;24235;-58
2022/11/21 04:14:25;;;;;;;65.60;28.20;;;;;;;-1.64;88.52;99191.03;103211;1282;22623;-56
2022/11/21 04:16:57;;;;;;;67.60;27.10;;;;;;;-1.65;88.54;99188.25;103277;1282;24305;-58
2022/11/21 04:19:29;;;;;;;66.80;27.50;;;;;;;-1.65;88.56;99191.15;103099;1295;22763;-55
2022/11/21 04:22:00;;;;;;;72.00;29.20;;;;;;;-1.66;88.58;99187.03;103203;1306;23317;-57
2022/11/21 04:24:31;;;;;;;76.90;30.10;;;;;;;-1.66;88.67;99187.73;103410;1281;22612;-56
2022/11/21 04:27:03;;;;;;;80.10;30.70;;;;;;;-1.66;88.78;99188.66;103123;1275;22502;-58
2022/11/21 04:29:35;;;;;;;83.90;28.60;;;;;;;-1.65;88.72;99185.53;103399;1292;22550;-53
2022/11/21 04:32:08;;;;;;;65.60;28.40;;;;;;;-1.66;88.65;99176.62;103202;1281;26094;-56
2022/11/21 04:34:41;;;;;;;68.00;27.90;;;;;;;-1.66;88.54;99172.16;103164;1282;22538;-57
2022/11/21 04:37:12;;;;;;;67.10;27.10;;;;;;;-1.66;88.51;99166.85;103297;1284;25542;-58
2022/11/21 04:39:43;;;;;;;71.10;29.30;;;;;;;-1.65;88.56;99162.05;103203;1306;23048;-58
2022/11/21 04:42:16;;;;;;;70.80;28.70;;;;;;;-1.65;88.64;99153.08;103380;1282;24395;-58
2022/11/21 04:44:48;;;;;;;69.60;26.90;;;;;;;-1.63;88.65;99150.24;103072;1282;22466;-57
2022/11/21 04:47:20;;;;;;;68.80;27.10;;;;;;;-1.65;88.61;99147.90;103124;1275;25529;-58
2022/11/21 04:49:52;;;;;;;69.70;26.20;;;;;;;-1.64;88.76;99142.97;103187;1274;22636;-58
2022/11/21 04:52:23;;;;;;;71.50;29.10;;;;;;;-1.65;88.66;99137.14;103186;1292;22798;-55
2022/11/21 04:54:55;;;;;;;77.40;29.10;;;;;;;-1.65;88.70;99133.84;103290;1285;22503;-56
2022/11/21 04:57:27;;;;;;;78.00;32.50;;;;;;;-1.65;88.64;99129.16;103121;1275;24310;-54
2022/11/21 04:59:59;;;;;;;78.20;29.80;;;;;;;-1.65;88.82;99125.09;103134;1282;22636;-53
2022/11/21 05:02:32;;;;;;;69.70;29.20;;;;;;;-1.65;88.86;99128.20;103049;1306;22470;-57
2022/11/21 05:05:03;;;;;;;65.50;26.90;;;;;;;-1.64;88.91;99128.34;103134;1282;22505;-55
2022/11/21 05:07:34;;;;;;;76.40;30.30;;;;;;;-1.62;88.98;99123.78;103512;1275;22529;-58
2022/11/21 05:10:07;;;;;;;71.90;27.70;;;;;;;-1.60;88.97;99123.04;103352;1281;22510;-57
2022/11/21 05:15:32;;;;;;;66.90;25.50;;;;;;;-1.58;89.04;99125.02;103191;1278;22476;-57
2022/11/21 05:18:03;;;;;;;66.80;26.10;;;;;;;-1.56;88.92;99121.63;103193;1293;23857;-61
2022/11/21 05:20:35;;;;;;;66.80;26.60;;;;;;;-1.54;88.98;99117.20;103151;1297;26716;-56
2022/11/21 05:23:06;;;;;;;66.30;24.50;;;;;;;-1.52;89.15;99112.13;103150;1306;22601;-57
2022/11/21 05:25:38;;;;;;;69.00;25.60;;;;;;;-1.51;89.04;99105.70;103211;1282;25433;-56
2022/11/21 05:28:10;;;;;;;65.00;25.40;;;;;;;-1.50;89.17;99098.15;103447;1303;24331;-57
2022/11/21 05:30:41;;;;;;;60.70;24.60;;;;;;;-1.49;89.16;99097.75;103233;1287;25392;-57
2022/11/21 05:33:14;;;;;;;65.40;26.40;;;;;;;-1.47;89.08;99095.77;103212;1282;22756;-57
2022/11/21 05:35:45;;;;;;;66.60;25.50;;;;;;;-1.45;89.19;99095.09;103137;1281;22496;-56
2022/11/21 05:38:17;;;;;;;64.20;25.50;;;;;;;-1.45;89.30;99088.66;103183;1281;22642;-56
2022/11/21 05:40:48;;;;;;;61.10;25.80;;;;;;;-1.44;89.32;99082.55;103148;1282;24366;-54
2022/11/21 05:46:09;;;;;;;63.10;24.20;;;;;;;-1.39;89.30;99076.17;102954;1291;22521;-56
2022/11/21 05:48:41;;;;;;;58.50;23.20;;;;;;;-1.37;89.36;99071.73;104060;1282;23756;-55
2022/11/21 05:51:12;;;;;;;64.70;25.30;;;;;;;-1.34;89.43;99064.25;103251;1281;25667;-55
2022/11/21 05:53:45;;;;;;;61.60;25.90;;;;;;;-1.32;89.42;99061.61;103306;1281;22535;-56
2022/11/21 05:56:18;;;;;;;64.40;23.90;;;;;;;-1.31;89.56;99063.38;103058;1282;24234;-58
2022/11/21 05:58:50;;;;;;;70.40;26.40;;;;;;;-1.29;89.67;99055.36;103106;1280;24424;-57
2022/11/21 06:04:07;;;;;;;68.60;26.70;;;;;;;-1.26;89.67;99052.95;102907;1275;23213;-56
2022/11/21 06:06:40;;;;;;;69.60;27.00;;;;;;;-1.24;89.73;99053.29;103021;1305;23048;-57
2022/11/21 06:09:12;;;;;;;66.70;26.80;;;;;;;-1.21;89.79;99049.39;107129;1275;22355;-55
2022/11/21 06:11:43;;;;;;;76.70;28.20;;;;;;;-1.19;89.83;99044.08;104349;1287;22478;-54
2022/11/21 06:14:14;;;;;;;71.10;26.10;;;;;;;-1.17;89.80;99038.02;103171;1299;24254;-55
2022/11/21 06:16:45;;;;;;;72.00;28.00;;;;;;;-1.15;89.88;99034.45;103087;1273;26737;-55
2022/11/21 06:19:19;;;;;;;74.50;28.40;;;;;;;-1.15;89.83;99034.04;102921;1277;25397;-57
2022/11/21 06:21:51;;;;;;;67.00;26.70;;;;;;;-1.14;89.84;99040.45;104308;1281;22469;-56
2022/11/21 06:24:22;;;;;;;70.60;28.90;;;;;;;-1.13;89.79;99040.72;103093;1306;26725;-53
2022/11/21 06:26:54;;;;;;;94.20;36.40;;;;;;;-1.12;89.70;99041.88;103155;1278;22499;-55
2022/11/21 06:29:25;;;;;;;81.30;31.70;;;;;;;-1.14;89.74;99039.63;103130;1304;25514;-57
2022/11/21 06:31:57;;;;;;;67.20;29.00;;;;;;;-1.13;89.81;99030.39;103103;1282;22865;-56
2022/11/21 06:34:29;;;;;;;67.80;30.00;;;;;;;-1.12;89.72;99025.66;103136;1282;22530;-55
2022/11/21 06:37:00;;;;;;;67.20;25.00;;;;;;;-1.11;89.75;99028.39;103179;1306;23073;-57
2022/11/21 06:39:32;;;;;;;76.50;29.80;;;;;;;-1.10;89.69;99030.64;103227;1290;22467;-56
2022/11/21 06:42:05;;;;;;;75.90;29.90;;;;;;;-1.10;89.74;99026.55;103259;1281;25414;-56
2022/11/21 06:44:37;;;;;;;70.60;30.00;;;;;;;-1.10;89.74;99029.46;103166;1283;22470;-54
2022/11/21 06:47:09;;;;;;;74.40;28.70;;;;;;;-1.09;89.82;99024.59;103076;1283;22471;-56
2022/11/21 06:49:41;;;;;;;66.80;27.50;;;;;;;-1.09;89.89;99029.84;103085;1282;22494;-55
2022/11/21 06:52:12;;;;;;;71.30;27.20;;;;;;;-1.09;89.83;99030.20;103149;1300;22465;-56
2022/11/21 06:54:44;;;;;;;67.90;26.30;;;;;;;-1.09;89.92;99028.33;103205;1306;22479;-56
2022/11/21 06:57:16;;;;;;;72.50;26.90;;;;;;;-1.09;89.98;99032.55;103037;1284;25357;-57
2022/11/21 06:59:47;;;;;;;63.80;26.50;;;;;;;-1.07;90.01;99031.20;103278;1292;22464;-54
2022/11/21 07:02:19;;;;;;;63.40;23.90;;;;;;;-1.06;90.04;99032.95;103203;1280;24082;-54
2022/11/21 07:04:50;;;;;;;60.10;25.30;;;;;;;-1.04;90.14;99027.74;103222;1281;22509;-57
2022/11/21 07:07:22;;;;;;;64.80;24.40;;;;;;;-1.03;90.13;99027.86;103089;1281;22472;-56
2022/11/21 07:09:54;;;;;;;65.10;27.20;;;;;;;-1.01;90.03;99024.69;103257;1302;22605;-56
2022/11/21 07:15:15;;;;;;;61.20;24.70;;;;;;;-0.97;90.26;99025.60;104865;1275;24326;-58
2022/11/21 07:17:46;;;;;;;72.80;26.60;;;;;;;-0.96;90.38;99031.67;103174;1306;25206;-56
2022/11/21 07:20:18;;;;;;;67.40;27.00;;;;;;;-0.92;90.46;99034.86;103154;1306;22516;-57
2022/11/21 07:22:53;;;;;;;59.80;23.40;;;;;;;-0.88;90.56;99036.25;107120;1275;23009;-55
2022/11/21 07:25:24;;;;;;;66.60;25.90;;;;;;;-0.84;90.56;99036.99;103510;1278;22663;-53
2022/11/21 07:27:58;;;;;;;65.80;25.70;;;;;;;-0.80;90.62;99038.77;106849;1281;22242;-57
2022/11/21 07:30:29;;;;;;;64.40;27.10;;;;;;;-0.75;90.66;99033.56;106853;1291;22281;-57
2022/11/21 07:33:01;;;;;;;59.20;25.30;;;;;;;-0.71;90.70;99026.27;107124;1275;22298;-57
2022/11/21 07:35:33;;;;;;;59.30;22.80;;;;;;;-0.68;90.76;99023.73;106742;1274;22976;-55
2022/11/21 07:38:05;;;;;;;59.20;24.40;;;;;;;-0.63;90.78;99029.80;103140;1292;25457;-53
2022/11/21 07:40:37;;;;;;;66.00;26.60;;;;;;;-0.58;90.78;99029.87;103400;1286;22470;-56
2022/11/21 07:43:10;;;;;;;63.10;25.70;;;;;;;-0.53;90.85;99027.94;103064;1282;22504;-57
2022/11/21 07:45:42;;;;;;;67.80;26.40;;;;;;;-0.47;90.96;99026.27;103367;1306;24569;-56
2022/11/21 07:48:14;;;;;;;69.50;26.40;;;;;;;-0.42;91.05;99022.70;103245;1282;22746;-56
2022/11/21 07:50:45;;;;;;;55.70;24.00;;;;;;;-0.37;91.13;99026.31;103424;1283;25586;-55
2022/11/21 07:53:17;;;;;;;64.60;26.70;;;;;;;-0.32;91.17;99024.77;103113;1282;24367;-52
2022/11/21 07:55:49;;;;;;;58.40;25.00;;;;;;;-0.25;91.29;99023.01;103457;1283;25691;-57
2022/11/21 07:58:21;;;;;;;56.50;24.20;;;;;;;-0.20;91.23;99022.68;103215;1282;24238;-57
2022/11/21 08:00:53;;;;;;;55.30;23.60;;;;;;;-0.15;91.31;99022.61;103382;1293;22476;-52
2022/11/21 08:03:24;;;;;;;65.90;24.90;;;;;;;-0.09;91.42;99023.85;103166;1281;24282;-54
2022/11/21 08:05:56;;;;;;;62.40;26.80;;;;;;;-0.03;91.44;99022.19;103115;1281;22620;-53
2022/11/21 08:08:27;;;;;;;60.60;24.90;;;;;;;0.04;91.40;99018.31;103137;1281;23265;-53
2022/11/21 08:10:59;;;;;;;57.60;25.30;;;;;;;0.10;91.56;99011.77;103196;1294;25258;-57
2022/11/21 08:13:31;;;;;;;67.80;27.10;;;;;;;0.17;91.52;99010.95;103110;1282;24337;-56
2022/11/21 08:16:05;;;;;;;58.80;23.60;;;;;;;0.22;91.48;99013.91;103127;1296;22650;-56
2022/11/21 08:18:37;;;;;;;54.80;24.00;;;;;;;0.28;91.62;99012.06;103059;1306;22679;-54
2022/11/21 08:21:08;;;;;;;61.00;24.40;;;;;;;0.35;91.55;99016.10;103101;1306;25248;-55
2022/11/21 08:23:40;;;;;;;60.10;22.90;;;;;;;0.42;91.71;99016.98;103112;1282;24426;-57
2022/11/21 08:26:13;;;;;;;59.30;25.20;;;;;;;0.48;91.74;99014.98;103115;1282;25474;-56
2022/11/21 08:28:45;;;;;;;56.40;24.20;;;;;;;0.54;91.77;99017.42;103106;1282;25266;-54
2022/11/21 08:31:18;;;;;;;54.20;21.70;;;;;;;0.60;91.64;99020.45;103125;1282;22601;-53
2022/11/21 08:33:55;;;;;;;57.40;23.60;;;;;;;0.66;91.76;99022.23;103195;1281;25598;-56
2022/11/21 08:36:28;;;;;;;61.00;25.00;;;;;;;0.71;91.67;99015.78;103354;1282;22562;-55
2022/11/21 08:39:01;;;;;;;57.20;24.90;;;;;;;0.77;91.82;99018.43;103090;1281;22464;-52
2022/11/21 08:44:22;;;;;;;52.60;21.80;;;;;;;0.91;91.93;99021.20;103062;1282;22474;-56
2022/11/21 08:46:55;;;;;;;51.50;20.30;;;;;;;0.96;91.92;99019.75;103305;1281;22484;-54
2022/11/21 08:49:28;;;;;;;50.50;20.30;;;;;;;1.02;91.88;99022.30;103122;1306;25356;-53
2022/11/21 08:52:01;;;;;;;48.30;19.60;;;;;;;1.06;91.88;99018.48;103137;1303;22525;-55
2022/11/21 08:54:33;;;;;;;46.90;19.10;;;;;;;1.12;91.91;99015.39;103206;1292;25480;-55
2022/11/21 08:57:05;;;;;;;46.90;18.40;;;;;;;1.16;91.94;99017.80;103207;1288;24316;-56
2022/11/21 08:59:38;;;;;;;40.50;16.70;;;;;;;1.22;91.94;99016.27;103169;1281;25314;-55
2022/11/21 09:02:12;;;;;;;44.60;16.70;;;;;;;1.27;91.94;99015.85;103136;1306;25357;-53
2022/11/21 09:04:44;;;;;;;38.70;15.30;;;;;;;1.32;92.09;99014.73;103187;1281;22492;-57
2022/11/21 09:07:16;;;;;;;39.80;16.00;;;;;;;1.37;91.97;99018.02;103146;1283;22473;-56
2022/11/21 09:09:48;;;;;;;45.10;16.90;;;;;;;1.42;91.98;99020.89;103124;1282;22583;-56
2022/11/21 09:12:20;;;;;;;45.60;15.80;;;;;;;1.48;92.03;99018.71;103135;1281;22487;-56
2022/11/21 09:20:40;;;;;;;44.60;17.70;;;;;;;1.63;91.89;99020.77;102672;1303;25231;-53
2022/11/21 09:23:14;;;;;;;41.80;18.50;;;;;;;1.68;91.89;99020.37;102716;1312;22856;-53
2022/11/21 09:25:47;;;;;;;52.10;21.40;;;;;;;1.73;91.92;99022.08;102745;1280;22544;-54
2022/11/21 09:28:19;;;;;;;49.90;20.40;;;;;;;1.77;91.87;99022.14;102770;1295;24292;-55
2022/11/21 09:30:51;;;;;;;46.50;19.30;;;;;;;1.82;92.00;99022.92;102754;1312;24281;-56
2022/11/21 09:33:22;;;;;;;43.40;16.80;;;;;;;1.88;92.06;99025.21;102719;1311;22577;-56
2022/11/21 09:35:54;;;;;;;44.80;16.90;;;;;;;1.93;92.08;99021.47;102761;1287;22490;-57
2022/11/21 09:38:26;;;;;;;45.80;16.00;;;;;;;1.99;92.16;99019.67;102707;1288;22499;-56
2022/11/21 09:41:50;;;;;;;41.60;15.90;;;;;;;2.04;92.06;99020.35;102773;1290;26479;-56
2022/11/21 09:44:10;;;;;;;43.00;16.40;;;;;;;2.12;92.11;99016.59;102655;1288;22682;-56
2022/11/21 09:46:46;;;;;;;42.70;16.90;;;;;;;2.16;92.11;99016.50;102673;1287;22708;-56
2022/11/21 09:49:18;;;;;;;41.90;16.20;;;;;;;2.20;92.12;99014.27;102709;1295;22472;-57
2022/11/21 09:51:51;;;;;;;46.80;17.90;;;;;;;2.27;92.11;99020.34;102788;1309;24425;-55
2022/11/21 09:54:30;;;;;;;38.80;15.00;;;;;;;2.32;92.10;99020.60;102783;1287;23370;-55
2022/11/21 09:57:01;;;;;;;33.10;12.40;;;;;;;2.37;92.15;99019.27;102763;1287;25572;-56
2022/11/21 09:59:35;;;;;;;29.50;10.00;;;;;;;2.44;92.23;99018.72;103068;1281;22461;-57
2022/11/21 10:02:16;;;;;;;28.10;9.30;;;;;;;2.51;92.30;99021.45;102993;1280;341627;-57
2022/11/21 10:04:50;;;;;;;25.10;8.00;;;;;;;2.59;92.45;99021.38;103142;1298;22464;-55
2022/11/21 10:07:26;;;;;;;23.90;7.00;;;;;;;2.66;92.47;99021.31;103107;1283;22473;-57
2022/11/21 10:10:32;;;;;;;24.60;7.90;;;;;;;2.74;92.57;99027.98;103180;1287;22473;-57
2022/11/21 10:13:17;;;;;;;27.80;8.10;;;;;;;2.83;92.68;99029.28;103222;1293;22462;-57
2022/11/21 10:15:58;;;;;;;26.10;7.50;;;;;;;2.90;92.65;99035.66;103117;1281;25200;-57
2022/11/21 10:19:08;;;;;;;25.70;9.50;;;;;;;2.98;92.98;99033.86;103322;1275;22803;-57
2022/11/21 10:21:59;;;;;;;30.50;9.20;;;;;;;3.06;93.08;99029.23;103179;1306;22485;-56
2022/11/21 10:24:44;;;;;;;29.40;9.30;;;;;;;3.13;93.34;99024.12;103270;1282;22532;-58
2022/11/21 10:27:25;;;;;;;29.50;9.60;;;;;;;3.21;93.42;99019.23;103024;1281;22474;-57
2022/11/21 10:30:02;;;;;;;25.60;8.60;;;;;;;3.28;93.64;99016.02;103344;1288;25652;-55
2022/11/21 10:32:39;;;;;;;24.20;8.50;;;;;;;3.35;93.67;99013.45;103178;1281;24992;-57
2022/11/21 10:35:17;;;;;;;25.40;9.50;;;;;;;3.44;94.01;99006.77;103063;1281;22532;-57
2022/11/21 10:37:52;;;;;;;27.20;8.50;;;;;;;3.54;94.26;99005.54;103119;1307;24407;-57
2022/11/21 10:40:33;;;;;;;22.60;7.80;;;;;;;3.63;94.47;99010.85;103226;1282;22473;-57
2022/11/21 10:46:04;;;;;;;21.40;7.40;;;;;;;3.85;94.45;99014.34;103081;1288;22486;-57
2022/11/21 10:48:36;;;;;;;19.90;6.60;;;;;;;3.94;94.40;99014.98;103067;1306;23337;-57
2022/11/21 10:51:29;;;;;;;19.70;6.00;;;;;;;4.02;94.44;99016.03;103133;1283;23946;-57
2022/11/21 10:57:05;;;;;;;21.00;7.10;;;;;;;4.14;93.92;99016.06;102975;1309;22471;-57
2022/11/21 10:59:37;;;;;;;17.40;5.50;;;;;;;4.17;93.74;99017.70;102973;1280;25371;-57
2022/11/21 11:02:25;;;;;;;18.80;5.50;;;;;;;4.21;93.62;99017.54;103003;1284;22465;-57
2022/11/21 11:05:19;;;;;;;18.00;6.80;;;;;;;4.24;93.52;99014.55;103009;1310;22520;-57
2022/11/21 11:08:07;;;;;;;19.20;5.90;;;;;;;4.28;93.35;99012.65;103066;1280;22497;-56
2022/11/21 11:10:41;;;;;;;16.90;5.90;;;;;;;4.31;93.25;99018.09;103101;1281;22500;-57
2022/11/21 11:13:36;;;;;;;20.30;5.70;;;;;;;4.33;93.10;99022.10;103157;1284;22478;-56
2022/11/21 11:16:15;;;;;;;22.20;6.80;;;;;;;4.34;93.05;99020.84;103033;1283;22471;-58
2022/11/21 11:18:56;;;;;;;26.10;8.10;;;;;;;4.37;92.96;99023.26;103076;1293;22785;-56
2022/11/21 11:21:29;;;;;;;35.10;10.70;;;;;;;4.39;92.93;99025.52;103090;1277;26459;-57
2022/11/21 11:24:24;;;;;;;29.60;9.40;;;;;;;4.40;92.75;99024.04;102998;1281;24220;-58
2022/11/21 11:27:02;;;;;;;22.50;6.80;;;;;;;4.41;92.73;99025.73;103001;1306;24441;-55
2022/11/21 11:29:49;;;;;;;21.80;5.00;;;;;;;4.43;92.61;99025.17;103238;1281;22588;-57
2022/11/21 11:32:21;;;;;;;21.10;6.90;;;;;;;4.45;92.58;99026.27;103078;1284;24926;-54
2022/11/21 11:35:00;;;;;;;18.20;5.70;;;;;;;4.47;92.64;99033.36;103066;1295;24675;-56
2022/11/21 11:37:38;;;;;;;19.80;5.30;;;;;;;4.49;92.60;99033.09;103070;1288;25430;-57
2022/11/21 11:40:25;;;;;;;21.90;5.60;;;;;;;4.51;92.58;99028.63;103108;1282;25346;-58
2022/11/21 11:50:09;;;;;;;18.80;6.50;;;;;;;4.54;92.38;99030.46;103023;1307;22534;-56
2022/11/21 11:52:32;;;;;;;16.60;5.40;;;;;;;4.55;92.47;99032.89;102982;1287;22507;-56
2022/11/21 11:55:07;;;;;;;21.80;6.20;;;;;;;4.56;92.38;99034.66;103107;1295;22478;-57
2022/11/21 11:57:40;;;;;;;17.40;5.70;;;;;;;4.57;92.26;99028.20;102975;1306;22478;-56
2022/11/21 12:00:26;;;;;;;18.00;6.10;;;;;;;4.58;92.31;99029.28;103050;1282;24362;-57
2022/11/21 12:03:07;;;;;;;17.00;4.60;;;;;;;4.58;92.28;99027.44;103156;1281;22476;-54
2022/11/21 12:05:45;;;;;;;13.20;3.80;;;;;;;4.58;92.27;99030.35;103203;1306;22544;-56
2022/11/21 12:08:21;;;;;;;18.70;4.20;;;;;;;4.59;92.19;99031.52;103080;1287;22721;-56
2022/11/21 12:13:52;;;;;;;13.90;4.20;;;;;;;4.61;92.06;99031.39;102931;1287;22577;-58
2022/11/21 12:16:27;;;;;;;15.50;4.60;;;;;;;4.64;91.97;99032.39;103075;1283;22476;-56
2022/11/21 12:19:06;;;;;;;15.90;4.50;;;;;;;4.65;91.90;99036.34;103134;1306;22484;-57